createdAt,value
2018-06-22T00:02:27.091Z,7.35
2018-06-22T00:04:55.892Z,3.87
2018-06-22T00:07:24.704Z,3.33
2018-06-22T00:09:53.559Z,7.15
2018-06-22T00:12:22.362Z,4.20
2018-06-22T00:14:51.234Z,3.70
2018-06-22T00:17:20.038Z,5.80
2018-06-22T00:19:48.839Z,6.78
2018-06-22T00:22:17.682Z,2.52
2018-06-22T00:24:46.474Z,5.22
2018-06-22T00:27:15.278Z,4.87
2018-06-22T00:29:44.131Z,2.92
2018-06-22T00:32:12.754Z,5.83
2018-06-22T00:34:41.436Z,7.65
2018-06-22T00:37:10.233Z,7.72
2018-06-22T00:39:39.113Z,5.30
2018-06-22T00:42:08.003Z,7.12
2018-06-22T00:44:36.891Z,4.15
2018-06-22T00:47:05.700Z,6.47
2018-06-22T00:49:34.494Z,5.15
2018-06-22T00:52:03.350Z,3.33
2018-06-22T00:54:32.168Z,4.05
2018-06-22T00:57:00.982Z,4.50
2018-06-22T00:59:29.822Z,4.67
2018-06-22T01:01:58.713Z,4.90
2018-06-22T01:04:28.562Z,4.75
2018-06-22T01:06:57.364Z,3.62
2018-06-22T01:09:26.186Z,3.77
2018-06-22T01:11:55.087Z,4.25
2018-06-22T01:14:23.886Z,8.30
2018-06-22T01:16:53.498Z,4.25
2018-06-22T01:19:22.298Z,3.98
2018-06-22T01:21:51.106Z,3.12
2018-06-22T01:24:19.922Z,10.70
2018-06-22T01:26:48.830Z,2.75
2018-06-22T01:29:23.118Z,3.62
2018-06-22T01:31:51.906Z,3.33
2018-06-22T01:34:20.736Z,4.40
2018-06-22T01:36:49.534Z,2.58
2018-06-22T01:39:18.365Z,2.45
2018-06-22T01:41:47.475Z,2.30
2018-06-22T01:44:16.273Z,3.35
2018-06-22T01:46:45.075Z,1.57
2018-06-22T01:49:13.922Z,3.40
2018-06-22T01:51:42.545Z,3.08
2018-06-22T01:54:11.243Z,3.15
2018-06-22T01:56:40.060Z,2.42
2018-06-22T01:59:08.858Z,3.98
2018-06-22T02:01:38.157Z,3.65
2018-06-22T02:04:06.972Z,2.50
2018-06-22T02:06:35.783Z,3.17
2018-06-22T02:09:08.578Z,3.20
2018-06-22T02:11:37.424Z,2.50
2018-06-22T02:14:06.447Z,6.12
2018-06-22T02:16:35.370Z,3.02
2018-06-22T02:19:04.327Z,2.90
2018-06-22T02:21:33.139Z,2.30
2018-06-22T02:24:02.115Z,1.55
2018-06-22T02:26:30.919Z,3.62
2018-06-22T02:28:59.743Z,3.55
2018-06-22T02:31:28.556Z,4.53
2018-06-22T02:33:57.408Z,3.47
2018-06-22T02:36:26.029Z,3.02
2018-06-22T02:38:54.717Z,3.50
2018-06-22T02:41:23.537Z,6.50
2018-06-22T02:43:52.349Z,3.90
2018-06-22T02:46:20.975Z,4.35
2018-06-22T02:48:49.661Z,3.85
2018-06-22T02:51:18.495Z,2.87
2018-06-22T02:53:47.303Z,3.77
2018-06-22T02:56:16.122Z,2.27
2018-06-22T02:58:44.940Z,1.40
2018-06-22T03:01:13.760Z,3.22
2018-06-22T03:03:42.381Z,3.80
2018-06-22T03:06:11.074Z,2.50
2018-06-22T03:08:39.899Z,2.45
2018-06-22T03:11:08.731Z,2.92
2018-06-22T03:13:37.540Z,3.58
2018-06-22T03:16:06.973Z,4.72
2018-06-22T03:18:35.808Z,2.05
2018-06-22T03:21:04.619Z,3.50
2018-06-22T03:23:33.419Z,3.17
2018-06-22T03:26:02.236Z,3.08
2018-06-22T03:28:31.044Z,3.00
2018-06-22T03:30:59.865Z,3.80
2018-06-22T03:33:28.665Z,3.57
2018-06-22T03:35:57.474Z,1.72
2018-06-22T03:38:26.287Z,4.30
2018-06-22T03:40:55.095Z,1.57
2018-06-22T03:43:23.913Z,1.43
2018-06-22T03:45:52.714Z,3.43
2018-06-22T03:48:21.543Z,2.00
2018-06-22T03:50:50.362Z,4.37
2018-06-22T03:53:19.179Z,2.77
2018-06-22T03:55:47.994Z,1.92
2018-06-22T03:58:16.843Z,2.03
2018-06-22T04:00:45.927Z,4.08
2018-06-22T04:03:14.774Z,4.97
2018-06-22T04:05:43.411Z,1.87
2018-06-22T04:08:12.129Z,3.67
2018-06-22T04:10:40.915Z,4.00
2018-06-22T04:13:09.723Z,1.40
2018-06-22T04:15:38.545Z,4.55
2018-06-22T04:18:07.358Z,3.45
2018-06-22T04:20:36.170Z,2.85
2018-06-22T04:23:05.002Z,2.37
2018-06-22T04:25:33.819Z,2.30
2018-06-22T04:28:02.618Z,0.87
2018-06-22T04:30:31.519Z,3.23
2018-06-22T04:33:00.400Z,1.30
2018-06-22T04:35:29.225Z,1.80
2018-06-22T04:37:58.026Z,3.90
2018-06-22T04:40:26.834Z,1.93
2018-06-22T04:42:55.652Z,3.77
2018-06-22T04:45:24.470Z,0.93
2018-06-22T04:47:53.322Z,1.90
2018-06-22T04:50:22.154Z,1.63
2018-06-22T04:52:50.942Z,2.93
2018-06-22T04:55:19.868Z,3.97
2018-06-22T04:57:48.658Z,3.07
2018-06-22T05:00:17.477Z,3.37
2018-06-22T05:02:46.290Z,1.77
2018-06-22T05:05:15.104Z,1.97
2018-06-22T05:07:43.917Z,1.73
2018-06-22T05:10:12.753Z,1.90
2018-06-22T05:12:41.827Z,3.60
2018-06-22T05:15:10.642Z,2.13
2018-06-22T05:17:39.476Z,2.80
2018-06-22T05:20:08.315Z,3.23
2018-06-22T05:22:37.171Z,1.10
2018-06-22T05:25:05.956Z,1.50
2018-06-22T05:27:35.346Z,4.00
2018-06-22T05:30:04.220Z,1.80
2018-06-22T05:32:33.180Z,6.57
2018-06-22T05:35:01.973Z,1.40
2018-06-22T05:37:30.800Z,2.87
2018-06-22T05:39:59.601Z,2.40
2018-06-22T05:42:28.425Z,1.87
2018-06-22T05:44:57.229Z,2.80
2018-06-22T05:47:25.873Z,3.87
2018-06-22T05:49:54.571Z,2.30
2018-06-22T05:52:23.530Z,4.00
2018-06-22T05:54:52.463Z,3.73
2018-06-22T05:57:21.247Z,3.57
2018-06-22T05:59:50.075Z,2.33
2018-06-22T06:02:18.899Z,2.20
2018-06-22T06:04:47.723Z,2.47
2018-06-22T06:07:16.885Z,2.20
2018-06-22T06:09:46.301Z,3.93
2018-06-22T06:12:15.674Z,1.43
2018-06-22T06:14:44.575Z,2.13
2018-06-22T06:17:13.496Z,3.40
2018-06-22T06:19:42.367Z,3.37
2018-06-22T06:22:11.247Z,2.80
2018-06-22T06:24:40.075Z,1.23
2018-06-22T06:27:08.921Z,4.73
2018-06-22T06:29:37.712Z,2.20
2018-06-22T06:32:06.528Z,1.50
2018-06-22T06:34:35.355Z,0.80
2018-06-22T06:37:04.160Z,1.53
2018-06-22T06:39:32.960Z,1.07
2018-06-22T06:42:04.734Z,4.10
2018-06-22T06:44:33.534Z,0.87
2018-06-22T06:47:02.174Z,2.27
2018-06-22T06:49:31.037Z,0.97
2018-06-22T06:51:59.826Z,1.07
2018-06-22T06:54:28.653Z,0.60
2018-06-22T06:56:57.454Z,0.83
2018-06-22T06:59:26.260Z,1.33
2018-06-22T07:01:55.107Z,0.37
2018-06-22T07:04:23.920Z,0.50
2018-06-22T07:06:52.767Z,0.93
2018-06-22T07:09:21.571Z,0.20
2018-06-22T07:11:50.389Z,0.40
2018-06-22T07:14:19.299Z,0.50
2018-06-22T07:16:48.109Z,0.57
2018-06-22T07:19:17.135Z,0.87
2018-06-22T07:21:45.953Z,0.50
2018-06-22T07:24:15.119Z,1.43
2018-06-22T07:26:43.927Z,1.23
2018-06-22T07:29:12.721Z,0.70
2018-06-22T07:31:41.611Z,2.70
2018-06-22T07:34:10.486Z,0.37
2018-06-22T07:36:39.468Z,0.60
2018-06-22T07:39:10.198Z,0.30
2018-06-22T07:41:39.202Z,0.37
2018-06-22T07:44:08.169Z,2.40
2018-06-22T07:46:37.080Z,0.80
2018-06-22T07:49:05.888Z,3.40
2018-06-22T07:51:34.695Z,1.50
2018-06-22T07:54:03.553Z,1.53
2018-06-22T07:56:32.367Z,0.40
2018-06-22T07:59:01.201Z,0.67
2018-06-22T08:01:30.020Z,0.60
2018-06-22T08:03:58.817Z,0.60
2018-06-22T08:06:27.631Z,0.67
2018-06-22T08:08:56.439Z,0.30
2018-06-22T08:11:25.264Z,0.40
2018-06-22T08:13:54.087Z,1.03
2018-06-22T08:16:22.926Z,0.23
2018-06-22T08:18:51.930Z,0.73
2018-06-22T08:21:21.539Z,0.80
2018-06-22T08:23:50.456Z,0.47
2018-06-22T08:26:19.263Z,0.87
2018-06-22T08:28:48.115Z,0.57
2018-06-22T08:31:16.922Z,0.20
2018-06-22T08:33:45.731Z,0.40
2018-06-22T08:36:14.529Z,0.33
2018-06-22T08:38:43.354Z,0.30
2018-06-22T08:41:12.171Z,0.20
2018-06-22T08:43:41.040Z,0.43
2018-06-22T08:46:09.918Z,0.20
2018-06-22T08:48:38.725Z,0.43
2018-06-22T08:51:07.810Z,0.50
2018-06-22T08:53:36.798Z,0.83
2018-06-22T08:56:05.783Z,1.70
2018-06-22T08:58:34.602Z,5.67
2018-06-22T09:01:03.393Z,2.10
2018-06-22T09:03:32.226Z,17.90
2018-06-22T09:06:01.052Z,7.03
2018-06-22T09:08:29.874Z,1.43
2018-06-22T09:10:58.680Z,5.43
2018-06-22T09:13:27.478Z,13.80
2018-06-22T09:15:56.295Z,7.70
2018-06-22T09:18:25.185Z,4.53
2018-06-22T09:20:53.981Z,0.73
2018-06-22T09:23:22.792Z,3.73
2018-06-22T09:25:51.659Z,1.40
2018-06-22T09:28:20.559Z,21.17
2018-06-22T09:30:49.438Z,9.47
2018-06-22T09:33:18.331Z,6.53
2018-06-22T09:35:47.217Z,1.40
2018-06-22T09:38:16.107Z,1.20
2018-06-22T09:40:44.924Z,1.27
2018-06-22T09:43:13.807Z,2.47
2018-06-22T09:45:42.664Z,0.60
2018-06-22T09:48:11.816Z,6.80
2018-06-22T09:50:40.606Z,3.63
2018-06-22T09:53:09.496Z,1.17
2018-06-22T09:55:38.259Z,1.10
2018-06-22T09:58:07.080Z,7.10
2018-06-22T10:00:35.919Z,2.70
2018-06-22T10:03:04.747Z,5.73
2018-06-22T10:05:33.542Z,2.67
2018-06-22T10:08:02.358Z,2.40
2018-06-22T10:10:31.245Z,2.87
2018-06-22T10:13:00.152Z,2.13
2018-06-22T10:15:28.961Z,2.57
2018-06-22T10:17:57.891Z,1.10
2018-06-22T10:20:26.682Z,2.30
2018-06-22T10:22:55.605Z,2.93
2018-06-22T10:25:24.486Z,1.50
2018-06-22T10:27:53.496Z,4.47
2018-06-22T10:30:22.473Z,2.33
2018-06-22T10:32:51.276Z,1.90
2018-06-22T10:35:20.091Z,2.40
2018-06-22T10:37:48.891Z,1.67
2018-06-22T10:40:17.710Z,1.30
2018-06-22T10:42:46.520Z,2.00
2018-06-22T10:45:15.327Z,2.70
2018-06-22T10:47:44.133Z,2.10
2018-06-22T10:50:12.946Z,1.77
2018-06-22T10:52:41.796Z,2.37
2018-06-22T10:55:10.675Z,1.97
2018-06-22T10:57:39.481Z,2.17
2018-06-22T11:00:08.347Z,1.53
2018-06-22T11:02:37.188Z,3.53
2018-06-22T11:05:06.000Z,1.87
2018-06-22T11:07:34.813Z,2.50
2018-06-22T11:10:03.647Z,2.80
2018-06-22T11:12:32.475Z,1.47
2018-06-22T11:15:01.300Z,1.93
2018-06-22T11:17:30.120Z,1.83
2018-06-22T11:19:58.844Z,0.77
2018-06-22T11:22:27.532Z,1.23
2018-06-22T11:24:56.374Z,0.83
2018-06-22T11:27:25.214Z,1.50
2018-06-22T11:29:53.976Z,1.83
2018-06-22T11:32:22.792Z,4.67
2018-06-22T11:34:51.589Z,1.73
2018-06-22T11:37:20.384Z,2.20
2018-06-22T11:39:49.205Z,1.13
2018-06-22T11:42:18.046Z,2.07
2018-06-22T11:44:46.875Z,2.90
2018-06-22T11:47:16.157Z,1.13
2018-06-22T11:49:44.964Z,2.37
2018-06-22T11:52:13.677Z,3.63
2018-06-22T11:54:42.366Z,2.87
2018-06-22T11:57:11.453Z,1.83
2018-06-22T11:59:40.357Z,3.80
2018-06-22T12:02:09.346Z,2.73
2018-06-22T12:04:38.194Z,1.43
2018-06-22T12:07:07.047Z,2.97
2018-06-22T12:09:35.863Z,1.73
2018-06-22T12:12:04.667Z,2.07
2018-06-22T12:14:33.480Z,3.00
2018-06-22T12:17:02.314Z,3.07
2018-06-22T12:19:31.137Z,2.60
2018-06-22T12:21:59.966Z,1.77
2018-06-22T12:24:28.857Z,4.00
2018-06-22T12:26:57.722Z,1.77
2018-06-22T12:29:26.523Z,2.30
2018-06-22T12:31:55.358Z,2.03
2018-06-22T12:34:24.158Z,1.20
2018-06-22T12:36:52.866Z,2.67
2018-06-22T12:39:21.603Z,3.90
2018-06-22T12:41:50.453Z,3.17
2018-06-22T12:44:19.269Z,4.00
2018-06-22T12:46:48.078Z,2.30
2018-06-22T12:49:16.873Z,2.73
2018-06-22T12:51:45.703Z,2.67
2018-06-22T12:54:14.531Z,2.03
2018-06-22T12:56:43.330Z,1.83
2018-06-22T12:59:12.144Z,4.10
2018-06-22T13:01:40.955Z,4.13
2018-06-22T13:04:09.756Z,2.20
2018-06-22T13:06:38.551Z,2.10
2018-06-22T13:09:09.243Z,2.27
2018-06-22T13:11:38.049Z,1.40
2018-06-22T13:14:07.146Z,2.67
2018-06-22T13:16:35.996Z,4.60
2018-06-22T13:19:05.010Z,3.63
2018-06-22T13:21:44.078Z,1.53
2018-06-22T13:24:12.975Z,3.37
2018-06-22T13:26:41.786Z,3.67
2018-06-22T13:29:10.632Z,3.33
2018-06-22T13:31:39.402Z,3.40
2018-06-22T13:34:08.215Z,2.77
2018-06-22T13:36:37.022Z,2.30
2018-06-22T13:39:08.913Z,4.37
2018-06-22T13:41:37.875Z,5.43
2018-06-22T13:44:06.735Z,4.33
2018-06-22T13:46:35.835Z,4.90
2018-06-22T13:49:04.743Z,3.97
2018-06-22T13:51:33.827Z,2.00
2018-06-22T13:54:03.033Z,4.73
2018-06-22T13:56:32.826Z,3.83
2018-06-22T13:59:02.027Z,4.87
2018-06-22T14:01:31.839Z,3.00
2018-06-22T14:04:06.122Z,6.80
2018-06-22T14:06:40.218Z,3.47
2018-06-22T14:09:11.932Z,3.70
2018-06-22T14:11:41.334Z,2.00
2018-06-22T14:14:10.291Z,4.80
2018-06-22T14:16:39.633Z,4.03
2018-06-22T14:19:08.794Z,4.90
2018-06-22T14:21:37.911Z,3.60
2018-06-22T14:24:07.629Z,3.30
2018-06-22T14:26:36.544Z,3.10
2018-06-22T14:29:05.640Z,4.47
2018-06-22T14:31:34.454Z,5.47
2018-06-22T14:34:03.249Z,3.27
2018-06-22T14:36:32.116Z,6.40
2018-06-22T14:39:00.901Z,5.50
2018-06-22T14:41:29.737Z,6.67
2018-06-22T14:43:58.538Z,3.33
2018-06-22T14:46:27.357Z,4.27
2018-06-22T14:48:56.208Z,3.10
2018-06-22T14:51:24.976Z,3.83
2018-06-22T14:53:59.329Z,5.13
2018-06-22T14:56:33.669Z,4.53
2018-06-22T14:59:07.967Z,4.37
2018-06-22T15:01:42.281Z,5.80
2018-06-22T15:04:16.467Z,3.43
2018-06-22T15:06:50.663Z,3.30
2018-06-22T15:09:19.477Z,4.80
2018-06-22T15:11:48.302Z,5.03
2018-06-22T15:14:17.100Z,3.73
2018-06-22T15:16:46.000Z,4.43
2018-06-22T15:19:14.790Z,5.10
2018-06-22T15:21:43.601Z,3.57
2018-06-22T15:24:12.393Z,4.97
2018-06-22T15:26:41.312Z,3.07
2018-06-22T15:29:10.187Z,5.00
2018-06-22T15:31:39.128Z,4.53
2018-06-22T15:34:13.457Z,3.73
2018-06-22T15:36:47.879Z,3.80
2018-06-22T15:39:22.133Z,4.97
2018-06-22T15:41:56.390Z,5.97
2018-06-22T15:44:30.727Z,3.57
2018-06-22T15:47:05.144Z,4.43
2018-06-22T15:49:39.551Z,7.10
2018-06-22T15:52:13.873Z,5.80
2018-06-22T15:54:48.209Z,5.23
2018-06-22T15:57:17.019Z,3.30
2018-06-22T15:59:45.923Z,4.23
2018-06-22T16:02:20.287Z,2.43
2018-06-22T16:04:49.123Z,4.80
2018-06-22T16:07:18.026Z,4.90
2018-06-22T16:09:52.362Z,5.77
2018-06-22T16:12:26.617Z,7.30
2018-06-22T16:15:00.740Z,6.43
2018-06-22T16:17:34.914Z,4.00
2018-06-22T16:20:09.224Z,6.47
2018-06-22T16:22:43.484Z,9.40
2018-06-22T16:25:17.887Z,7.57
2018-06-22T16:27:49.584Z,6.33
2018-06-22T16:30:18.407Z,3.87
2018-06-22T16:32:47.212Z,3.83
2018-06-22T16:35:16.022Z,5.03
2018-06-22T16:37:44.838Z,12.53
2018-06-22T16:40:13.644Z,5.17
2018-06-22T16:42:42.855Z,7.17
2018-06-22T16:45:11.635Z,4.57
2018-06-22T16:47:40.438Z,3.90
2018-06-22T16:50:09.987Z,5.00
2018-06-22T16:52:40.922Z,5.07
2018-06-22T16:55:10.338Z,6.17
2018-06-22T16:57:39.394Z,5.40
2018-06-22T17:00:08.729Z,6.50
2018-06-22T17:02:37.532Z,5.17
2018-06-22T17:05:06.609Z,7.40
2018-06-22T17:07:40.907Z,7.43
2018-06-22T17:10:15.092Z,5.80
2018-06-22T17:12:49.409Z,5.47
2018-06-22T17:15:23.838Z,5.27
2018-06-22T17:17:58.110Z,7.27
2018-06-22T17:20:27.047Z,4.67
2018-06-22T17:22:55.896Z,9.47
2018-06-22T17:25:26.742Z,5.60
2018-06-22T17:27:55.691Z,5.20
2018-06-22T17:30:24.633Z,5.97
2018-06-22T17:32:53.415Z,5.03
2018-06-22T17:35:22.208Z,4.53
2018-06-22T17:37:51.023Z,5.80
2018-06-22T17:40:19.849Z,4.67
2018-06-22T17:42:48.668Z,5.67
2018-06-22T17:45:17.491Z,5.77
2018-06-22T17:47:46.316Z,5.00
2018-06-22T17:50:20.618Z,4.63
2018-06-22T17:52:49.434Z,8.67
2018-06-22T17:55:18.314Z,6.17
2018-06-22T17:57:47.131Z,7.67
2018-06-22T18:00:21.447Z,4.73
2018-06-22T18:02:55.867Z,4.87
2018-06-22T18:05:30.048Z,7.37
2018-06-22T18:07:58.857Z,6.80
2018-06-22T18:10:33.184Z,3.53
2018-06-22T18:13:02.128Z,6.60
2018-06-22T18:15:30.892Z,6.13
2018-06-22T18:17:59.705Z,3.93
2018-06-22T18:20:28.547Z,6.30
2018-06-22T18:22:57.433Z,7.17
2018-06-22T18:25:26.288Z,5.03
2018-06-22T18:27:55.398Z,6.43
2018-06-22T18:30:24.184Z,6.03
2018-06-22T18:32:53.008Z,9.27
2018-06-22T18:35:21.805Z,8.47
2018-06-22T18:37:50.647Z,8.83
2018-06-22T18:40:19.476Z,4.80
2018-06-22T18:42:48.277Z,9.30
2018-06-22T18:45:17.103Z,6.33
2018-06-22T18:47:45.922Z,6.40
2018-06-22T18:50:14.768Z,5.90
2018-06-22T18:52:48.975Z,7.00
2018-06-22T18:55:23.339Z,7.00
2018-06-22T18:57:57.756Z,7.53
2018-06-22T19:01:35.834Z,7.13
2018-06-22T19:04:04.757Z,7.80
2018-06-22T19:06:33.578Z,7.60
2018-06-22T19:09:02.416Z,6.37
2018-06-22T19:11:31.236Z,6.80
2018-06-22T19:14:00.049Z,5.50
2018-06-22T19:16:28.865Z,8.87
2018-06-22T19:18:58.218Z,3.97
2018-06-22T19:21:27.924Z,8.67
2018-06-22T19:23:56.744Z,7.73
2018-06-22T19:26:25.559Z,9.37
2018-06-22T19:28:54.388Z,8.10
2018-06-22T19:31:23.190Z,6.97
2018-06-22T19:33:52.015Z,10.07
2018-06-22T19:36:20.822Z,6.93
2018-06-22T19:38:49.652Z,8.47
2018-06-22T19:41:18.462Z,8.43
2018-06-22T19:43:52.979Z,8.13
2018-06-22T19:46:27.265Z,7.17
2018-06-22T19:49:01.722Z,7.67
2018-06-22T19:51:36.111Z,7.63
2018-06-22T19:54:07.298Z,7.13
2018-06-22T19:56:36.281Z,11.87
2018-06-22T19:59:05.182Z,7.43
2018-06-22T20:01:34.034Z,9.07
2018-06-22T20:04:02.842Z,6.10
2018-06-22T20:06:31.663Z,11.70
2018-06-22T20:09:00.509Z,7.87
2018-06-22T20:11:29.336Z,7.83
2018-06-22T20:13:58.172Z,9.73
2018-06-22T20:16:26.984Z,7.10
2018-06-22T20:18:55.873Z,7.97
2018-06-22T20:21:24.735Z,12.90
2018-06-22T20:23:54.580Z,6.90
2018-06-22T20:26:23.383Z,9.57
2018-06-22T20:28:52.286Z,8.23
2018-06-22T20:31:26.683Z,6.83
2018-06-22T20:33:56.197Z,5.70
2018-06-22T20:36:30.508Z,7.10
2018-06-22T20:39:04.976Z,6.00
2018-06-22T20:41:39.477Z,7.53
2018-06-22T20:44:13.868Z,9.00
2018-06-22T20:46:48.073Z,6.03
2018-06-22T20:49:22.465Z,7.60
2018-06-22T20:51:51.272Z,8.40
2018-06-22T20:54:20.460Z,5.33
2018-06-22T20:56:49.244Z,9.67
2018-06-22T20:59:18.059Z,7.43
2018-06-22T21:01:46.852Z,5.93
2018-06-22T21:04:15.687Z,10.57
2018-06-22T21:06:44.492Z,6.33
2018-06-22T21:09:13.202Z,6.50
2018-06-22T21:11:41.878Z,6.63
2018-06-22T21:14:10.835Z,6.03
2018-06-22T21:16:39.891Z,8.00
2018-06-22T21:19:08.800Z,3.97
2018-06-22T21:21:42.989Z,5.87
2018-06-22T21:24:11.785Z,5.20
2018-06-22T21:26:40.587Z,5.17
2018-06-22T21:29:14.961Z,6.83
2018-06-22T21:31:49.360Z,7.60
2018-06-22T21:34:23.560Z,6.73
2018-06-22T21:36:57.641Z,5.40
2018-06-22T21:39:26.450Z,6.10
2018-06-22T21:41:55.250Z,7.33
2018-06-22T21:44:24.072Z,8.93
2018-06-22T21:46:52.898Z,6.43
2018-06-22T21:49:21.705Z,6.70
2018-06-22T21:51:50.515Z,8.07
2018-06-22T21:54:19.336Z,7.97
2018-06-22T21:56:48.246Z,6.40
2018-06-22T21:59:17.071Z,7.90
2018-06-22T22:01:45.868Z,7.93
2018-06-22T22:04:14.691Z,5.37
2018-06-22T22:06:43.522Z,6.33
2018-06-22T22:09:12.354Z,7.20
2018-06-22T22:11:46.644Z,7.27
2018-06-22T22:14:15.460Z,6.57
2018-06-22T22:16:44.284Z,7.67
2018-06-22T22:19:13.081Z,5.43
2018-06-22T22:21:41.892Z,7.17
2018-06-22T22:24:10.766Z,9.63
2018-06-22T22:26:39.667Z,10.80
2018-06-22T22:29:08.816Z,6.37
2018-06-22T22:31:37.653Z,8.80
2018-06-22T22:34:06.459Z,6.73
2018-06-22T22:36:35.261Z,7.47
2018-06-22T22:39:05.794Z,6.10
2018-06-22T22:41:34.773Z,9.87
2018-06-22T22:44:03.398Z,8.87
2018-06-22T22:46:32.218Z,7.40
2018-06-22T22:49:01.038Z,6.97
2018-06-22T22:51:29.833Z,5.83
2018-06-22T22:53:58.651Z,5.80
2018-06-22T22:56:27.450Z,6.77
2018-06-22T22:58:56.514Z,5.33
2018-06-22T23:01:25.529Z,10.57
2018-06-22T23:03:54.527Z,6.17
2018-06-22T23:06:23.337Z,8.60
2018-06-22T23:08:52.141Z,7.57
2018-06-22T23:11:20.969Z,7.83
2018-06-22T23:13:49.783Z,8.63
2018-06-22T23:16:18.601Z,5.33
2018-06-22T23:18:47.402Z,8.33
2018-06-22T23:21:16.215Z,7.33
2018-06-22T23:23:45.027Z,10.47
2018-06-22T23:26:13.830Z,6.27
2018-06-22T23:28:42.638Z,4.97
2018-06-22T23:31:11.463Z,10.33
2018-06-22T23:33:40.277Z,5.57
2018-06-22T23:36:09.138Z,5.57
2018-06-22T23:38:38.325Z,8.20
2018-06-22T23:41:07.132Z,9.60
2018-06-22T23:43:35.982Z,8.83
2018-06-22T23:46:04.767Z,6.47
2018-06-22T23:48:33.579Z,6.60
2018-06-22T23:51:02.405Z,7.80
2018-06-22T23:53:31.282Z,5.57
2018-06-22T23:56:00.212Z,6.07
2018-06-22T23:58:28.997Z,10.10
